sensor_id;sensor_type;location;lat;lon;timestamp;P1;durP1;ratioP1;P2;durP2;ratioP2
35530;SDS011;21637;53.352;-6.356;2023-02-24T00:01:17;14.85;;;6.40;;
35530;SDS011;21637;53.352;-6.356;2023-02-24T00:03:58;16.27;;;6.75;;
35530;SDS011;21637;53.352;-6.356;2023-02-24T00:06:25;14.02;;;5.40;;
35530;SDS011;21637;53.352;-6.356;2023-02-24T00:09:00;13.73;;;4.55;;
35530;SDS011;21637;53.352;-6.356;2023-02-24T00:11:41;14.13;;;4.95;;
35530;SDS011;21637;53.352;-6.356;2023-02-24T00:14:10;19.85;;;5.80;;
35530;SDS011;21637;53.352;-6.356;2023-02-24T00:16:44;9.63;;;5.00;;
35530;SDS011;21637;53.352;-6.356;2023-02-24T00:19:11;13.10;;;5.05;;
35530;SDS011;21637;53.352;-6.356;2023-02-24T00:21:39;13.82;;;5.43;;
35530;SDS011;21637;53.352;-6.356;2023-02-24T00:24:05;14.23;;;6.00;;
35530;SDS011;21637;53.352;-6.356;2023-02-24T00:26:31;18.10;;;6.43;;
35530;SDS011;21637;53.352;-6.356;2023-02-24T00:28:58;15.45;;;5.50;;
35530;SDS011;21637;53.352;-6.356;2023-02-24T00:31:27;18.83;;;5.85;;
35530;SDS011;21637;53.352;-6.356;2023-02-24T00:33:55;13.85;;;4.82;;
35530;SDS011;21637;53.352;-6.356;2023-02-24T00:36:22;19.08;;;5.72;;
35530;SDS011;21637;53.352;-6.356;2023-02-24T00:38:54;13.70;;;5.20;;
35530;SDS011;21637;53.352;-6.356;2023-02-24T00:41:26;14.52;;;5.63;;
35530;SDS011;21637;53.352;-6.356;2023-02-24T00:43:54;14.77;;;6.28;;
35530;SDS011;21637;53.352;-6.356;2023-02-24T00:46:33;18.23;;;6.10;;
35530;SDS011;21637;53.352;-6.356;2023-02-24T00:49:07;20.40;;;6.70;;
35530;SDS011;21637;53.352;-6.356;2023-02-24T00:51:37;14.25;;;5.85;;
35530;SDS011;21637;53.352;-6.356;2023-02-24T00:54:04;12.77;;;5.43;;
35530;SDS011;21637;53.352;-6.356;2023-02-24T00:56:31;22.40;;;5.28;;
35530;SDS011;21637;53.352;-6.356;2023-02-24T00:58:57;20.38;;;6.18;;
35530;SDS011;21637;53.352;-6.356;2023-02-24T01:01:25;26.17;;;6.57;;
35530;SDS011;21637;53.352;-6.356;2023-02-24T01:03:56;17.27;;;6.25;;
35530;SDS011;21637;53.352;-6.356;2023-02-24T01:06:24;21.00;;;6.22;;
35530;SDS011;21637;53.352;-6.356;2023-02-24T01:08:53;15.60;;;5.30;;
35530;SDS011;21637;53.352;-6.356;2023-02-24T01:11:21;22.50;;;6.28;;
35530;SDS011;21637;53.352;-6.356;2023-02-24T01:14:09;16.67;;;5.32;;
35530;SDS011;21637;53.352;-6.356;2023-02-24T01:16:38;23.58;;;6.60;;
35530;SDS011;21637;53.352;-6.356;2023-02-24T01:19:05;18.92;;;7.88;;
35530;SDS011;21637;53.352;-6.356;2023-02-24T01:21:32;26.95;;;7.43;;
35530;SDS011;21637;53.352;-6.356;2023-02-24T01:23:58;18.90;;;5.60;;
35530;SDS011;21637;53.352;-6.356;2023-02-24T01:26:24;15.10;;;5.43;;
35530;SDS011;21637;53.352;-6.356;2023-02-24T01:28:51;21.50;;;7.55;;
35530;SDS011;21637;53.352;-6.356;2023-02-24T01:31:18;12.88;;;5.55;;
35530;SDS011;21637;53.352;-6.356;2023-02-24T01:33:47;17.75;;;5.53;;
35530;SDS011;21637;53.352;-6.356;2023-02-24T01:36:18;19.30;;;6.10;;
35530;SDS011;21637;53.352;-6.356;2023-02-24T01:38:45;16.08;;;5.35;;
35530;SDS011;21637;53.352;-6.356;2023-02-24T01:41:14;15.98;;;5.18;;
35530;SDS011;21637;53.352;-6.356;2023-02-24T01:43:54;15.13;;;4.43;;
35530;SDS011;21637;53.352;-6.356;2023-02-24T01:46:34;17.10;;;5.20;;
35530;SDS011;21637;53.352;-6.356;2023-02-24T01:49:24;20.67;;;5.80;;
35530;SDS011;21637;53.352;-6.356;2023-02-24T01:52:03;19.52;;;4.90;;
35530;SDS011;21637;53.352;-6.356;2023-02-24T01:54:42;18.00;;;4.80;;
35530;SDS011;21637;53.352;-6.356;2023-02-24T01:57:13;19.77;;;5.13;;
35530;SDS011;21637;53.352;-6.356;2023-02-24T01:59:43;14.68;;;4.40;;
35530;SDS011;21637;53.352;-6.356;2023-02-24T02:02:14;26.20;;;5.70;;
35530;SDS011;21637;53.352;-6.356;2023-02-24T02:04:57;20.10;;;5.20;;
35530;SDS011;21637;53.352;-6.356;2023-02-24T02:07:28;15.70;;;4.47;;
35530;SDS011;21637;53.352;-6.356;2023-02-24T02:09:54;17.40;;;5.15;;
35530;SDS011;21637;53.352;-6.356;2023-02-24T02:12:24;17.27;;;4.72;;
35530;SDS011;21637;53.352;-6.356;2023-02-24T02:14:51;18.42;;;4.15;;
35530;SDS011;21637;53.352;-6.356;2023-02-24T02:28:54;18.02;;;4.57;;
35530;SDS011;21637;53.352;-6.356;2023-02-24T02:37:08;18.27;;;4.68;;
35530;SDS011;21637;53.352;-6.356;2023-02-24T02:39:50;18.80;;;3.95;;
35530;SDS011;21637;53.352;-6.356;2023-02-24T02:48:50;17.17;;;3.65;;
35530;SDS011;21637;53.352;-6.356;2023-02-24T02:51:19;15.13;;;4.43;;
35530;SDS011;21637;53.352;-6.356;2023-02-24T02:56:44;13.80;;;3.85;;
35530;SDS011;21637;53.352;-6.356;2023-02-24T02:59:15;19.45;;;5.15;;
35530;SDS011;21637;53.352;-6.356;2023-02-24T03:01:46;19.37;;;3.93;;
35530;SDS011;21637;53.352;-6.356;2023-02-24T03:04:16;13.65;;;4.65;;
35530;SDS011;21637;53.352;-6.356;2023-02-24T03:06:48;15.27;;;3.85;;
35530;SDS011;21637;53.352;-6.356;2023-02-24T03:09:31;22.10;;;4.45;;
35530;SDS011;21637;53.352;-6.356;2023-02-24T03:12:04;15.75;;;4.43;;
35530;SDS011;21637;53.352;-6.356;2023-02-24T03:14:35;26.55;;;5.03;;
35530;SDS011;21637;53.352;-6.356;2023-02-24T03:17:06;14.93;;;4.07;;
35530;SDS011;21637;53.352;-6.356;2023-02-24T03:19:37;12.93;;;3.87;;
35530;SDS011;21637;53.352;-6.356;2023-02-24T03:22:11;20.88;;;4.32;;
35530;SDS011;21637;53.352;-6.356;2023-02-24T03:24:48;18.60;;;4.50;;
35530;SDS011;21637;53.352;-6.356;2023-02-24T03:27:16;15.95;;;3.95;;
35530;SDS011;21637;53.352;-6.356;2023-02-24T03:30:05;22.00;;;4.20;;
35530;SDS011;21637;53.352;-6.356;2023-02-24T03:35:40;19.25;;;4.20;;
35530;SDS011;21637;53.352;-6.356;2023-02-24T03:38:07;19.42;;;4.30;;
35530;SDS011;21637;53.352;-6.356;2023-02-24T03:40:38;19.60;;;4.35;;
35530;SDS011;21637;53.352;-6.356;2023-02-24T03:43:13;19.27;;;4.38;;
35530;SDS011;21637;53.352;-6.356;2023-02-24T03:45:46;22.40;;;4.30;;
35530;SDS011;21637;53.352;-6.356;2023-02-24T03:48:12;14.98;;;4.13;;
35530;SDS011;21637;53.352;-6.356;2023-02-24T03:50:40;15.05;;;4.18;;
35530;SDS011;21637;53.352;-6.356;2023-02-24T03:58:43;20.23;;;5.15;;
35530;SDS011;21637;53.352;-6.356;2023-02-24T04:01:44;22.40;;;4.75;;
35530;SDS011;21637;53.352;-6.356;2023-02-24T04:04:31;21.80;;;4.45;;
35530;SDS011;21637;53.352;-6.356;2023-02-24T04:12:37;20.95;;;4.38;;
35530;SDS011;21637;53.352;-6.356;2023-02-24T04:15:14;22.58;;;4.88;;
35530;SDS011;21637;53.352;-6.356;2023-02-24T04:17:50;18.25;;;4.65;;
35530;SDS011;21637;53.352;-6.356;2023-02-24T04:20:26;15.68;;;4.13;;
35530;SDS011;21637;53.352;-6.356;2023-02-24T04:23:05;18.75;;;5.18;;
35530;SDS011;21637;53.352;-6.356;2023-02-24T04:25:35;18.55;;;4.50;;
35530;SDS011;21637;53.352;-6.356;2023-02-24T04:28:03;14.25;;;4.25;;
35530;SDS011;21637;53.352;-6.356;2023-02-24T04:30:37;28.35;;;5.78;;
35530;SDS011;21637;53.352;-6.356;2023-02-24T04:33:05;21.02;;;5.10;;
35530;SDS011;21637;53.352;-6.356;2023-02-24T04:35:32;16.98;;;4.82;;
35530;SDS011;21637;53.352;-6.356;2023-02-24T04:37:58;20.27;;;4.85;;
35530;SDS011;21637;53.352;-6.356;2023-02-24T04:40:24;24.27;;;5.25;;
35530;SDS011;21637;53.352;-6.356;2023-02-24T04:42:51;23.85;;;4.80;;
35530;SDS011;21637;53.352;-6.356;2023-02-24T04:45:19;17.02;;;4.80;;
35530;SDS011;21637;53.352;-6.356;2023-02-24T04:47:46;19.65;;;4.70;;
35530;SDS011;21637;53.352;-6.356;2023-02-24T04:50:17;23.73;;;5.10;;
35530;SDS011;21637;53.352;-6.356;2023-02-24T04:55:18;16.00;;;4.97;;
35530;SDS011;21637;53.352;-6.356;2023-02-24T04:57:46;18.10;;;4.55;;
35530;SDS011;21637;53.352;-6.356;2023-02-24T05:00:21;16.00;;;4.07;;
35530;SDS011;21637;53.352;-6.356;2023-02-24T05:02:51;18.85;;;4.80;;
35530;SDS011;21637;53.352;-6.356;2023-02-24T05:05:19;22.38;;;4.70;;
35530;SDS011;21637;53.352;-6.356;2023-02-24T05:07:50;23.88;;;4.75;;
35530;SDS011;21637;53.352;-6.356;2023-02-24T05:10:17;25.50;;;5.30;;
35530;SDS011;21637;53.352;-6.356;2023-02-24T05:12:43;19.15;;;4.32;;
35530;SDS011;21637;53.352;-6.356;2023-02-24T05:15:09;19.40;;;4.85;;
35530;SDS011;21637;53.352;-6.356;2023-02-24T05:17:36;19.52;;;5.00;;
35530;SDS011;21637;53.352;-6.356;2023-02-24T05:20:04;21.63;;;5.03;;
35530;SDS011;21637;53.352;-6.356;2023-02-24T05:23:05;19.92;;;4.93;;
35530;SDS011;21637;53.352;-6.356;2023-02-24T05:25:33;19.60;;;5.65;;
35530;SDS011;21637;53.352;-6.356;2023-02-24T05:28:02;23.60;;;5.15;;
35530;SDS011;21637;53.352;-6.356;2023-02-24T05:30:31;21.80;;;5.20;;
35530;SDS011;21637;53.352;-6.356;2023-02-24T05:32:57;20.77;;;5.85;;
35530;SDS011;21637;53.352;-6.356;2023-02-24T05:35:24;17.38;;;4.38;;
35530;SDS011;21637;53.352;-6.356;2023-02-24T05:37:50;18.42;;;4.38;;
35530;SDS011;21637;53.352;-6.356;2023-02-24T05:40:16;22.33;;;5.18;;
35530;SDS011;21637;53.352;-6.356;2023-02-24T05:42:46;22.98;;;5.10;;
35530;SDS011;21637;53.352;-6.356;2023-02-24T05:45:12;19.17;;;5.00;;
35530;SDS011;21637;53.352;-6.356;2023-02-24T05:47:38;16.92;;;5.55;;
35530;SDS011;21637;53.352;-6.356;2023-02-24T05:50:04;29.42;;;5.07;;
35530;SDS011;21637;53.352;-6.356;2023-02-24T05:52:33;24.13;;;6.00;;
35530;SDS011;21637;53.352;-6.356;2023-02-24T05:55:01;19.80;;;4.60;;
35530;SDS011;21637;53.352;-6.356;2023-02-24T05:57:30;23.35;;;4.78;;
35530;SDS011;21637;53.352;-6.356;2023-02-24T05:59:59;25.30;;;5.25;;
35530;SDS011;21637;53.352;-6.356;2023-02-24T06:02:40;22.30;;;4.93;;
35530;SDS011;21637;53.352;-6.356;2023-02-24T06:05:13;17.45;;;5.13;;
35530;SDS011;21637;53.352;-6.356;2023-02-24T06:07:49;21.17;;;4.95;;
35530;SDS011;21637;53.352;-6.356;2023-02-24T06:10:26;28.92;;;5.00;;
35530;SDS011;21637;53.352;-6.356;2023-02-24T06:12:52;26.23;;;4.47;;
35530;SDS011;21637;53.352;-6.356;2023-02-24T06:15:18;19.98;;;5.20;;
35530;SDS011;21637;53.352;-6.356;2023-02-24T06:17:44;18.35;;;4.50;;
35530;SDS011;21637;53.352;-6.356;2023-02-24T06:20:10;24.80;;;4.78;;
35530;SDS011;21637;53.352;-6.356;2023-02-24T06:22:39;23.55;;;4.88;;
35530;SDS011;21637;53.352;-6.356;2023-02-24T06:25:07;17.15;;;4.40;;
35530;SDS011;21637;53.352;-6.356;2023-02-24T06:27:35;19.70;;;4.28;;
35530;SDS011;21637;53.352;-6.356;2023-02-24T06:30:03;18.70;;;4.38;;
35530;SDS011;21637;53.352;-6.356;2023-02-24T06:32:34;20.38;;;5.13;;
35530;SDS011;21637;53.352;-6.356;2023-02-24T06:35:00;25.58;;;4.63;;
35530;SDS011;21637;53.352;-6.356;2023-02-24T06:37:26;26.20;;;5.10;;
35530;SDS011;21637;53.352;-6.356;2023-02-24T06:39:53;21.70;;;5.07;;
35530;SDS011;21637;53.352;-6.356;2023-02-24T06:42:20;23.77;;;3.97;;
35530;SDS011;21637;53.352;-6.356;2023-02-24T06:44:46;24.33;;;5.15;;
35530;SDS011;21637;53.352;-6.356;2023-02-24T06:47:13;26.35;;;4.78;;
35530;SDS011;21637;53.352;-6.356;2023-02-24T06:49:40;17.42;;;4.75;;
35530;SDS011;21637;53.352;-6.356;2023-02-24T06:52:09;20.63;;;4.43;;
35530;SDS011;21637;53.352;-6.356;2023-02-24T06:54:35;29.67;;;5.63;;
35530;SDS011;21637;53.352;-6.356;2023-02-24T06:57:01;26.50;;;5.43;;
35530;SDS011;21637;53.352;-6.356;2023-02-24T06:59:28;20.35;;;4.47;;
35530;SDS011;21637;53.352;-6.356;2023-02-24T07:01:54;19.85;;;4.10;;
35530;SDS011;21637;53.352;-6.356;2023-02-24T07:04:20;27.80;;;5.30;;
35530;SDS011;21637;53.352;-6.356;2023-02-24T07:06:52;24.63;;;5.38;;
35530;SDS011;21637;53.352;-6.356;2023-02-24T07:09:22;21.77;;;4.55;;
35530;SDS011;21637;53.352;-6.356;2023-02-24T07:11:50;18.52;;;4.40;;
35530;SDS011;21637;53.352;-6.356;2023-02-24T07:14:18;20.17;;;4.43;;
35530;SDS011;21637;53.352;-6.356;2023-02-24T07:16:45;23.10;;;4.85;;
35530;SDS011;21637;53.352;-6.356;2023-02-24T07:19:16;20.73;;;4.72;;
35530;SDS011;21637;53.352;-6.356;2023-02-24T07:21:42;18.13;;;4.70;;
35530;SDS011;21637;53.352;-6.356;2023-02-24T07:24:14;21.90;;;4.20;;
35530;SDS011;21637;53.352;-6.356;2023-02-24T07:26:53;22.15;;;4.47;;
35530;SDS011;21637;53.352;-6.356;2023-02-24T07:29:21;12.53;;;3.70;;
35530;SDS011;21637;53.352;-6.356;2023-02-24T07:31:47;29.52;;;5.15;;
35530;SDS011;21637;53.352;-6.356;2023-02-24T07:34:13;20.20;;;4.75;;
35530;SDS011;21637;53.352;-6.356;2023-02-24T07:36:46;12.70;;;3.60;;
35530;SDS011;21637;53.352;-6.356;2023-02-24T07:39:15;30.60;;;4.93;;
35530;SDS011;21637;53.352;-6.356;2023-02-24T07:41:42;19.27;;;4.53;;
35530;SDS011;21637;53.352;-6.356;2023-02-24T07:44:13;25.73;;;5.15;;
35530;SDS011;21637;53.352;-6.356;2023-02-24T07:46:40;20.35;;;4.57;;
35530;SDS011;21637;53.352;-6.356;2023-02-24T07:49:07;24.38;;;5.63;;
35530;SDS011;21637;53.352;-6.356;2023-02-24T07:51:38;23.70;;;4.83;;
35530;SDS011;21637;53.352;-6.356;2023-02-24T07:54:05;16.85;;;4.07;;
35530;SDS011;21637;53.352;-6.356;2023-02-24T07:56:32;18.60;;;4.28;;
35530;SDS011;21637;53.352;-6.356;2023-02-24T08:01:26;19.52;;;3.97;;
35530;SDS011;21637;53.352;-6.356;2023-02-24T08:03:54;21.60;;;3.55;;
35530;SDS011;21637;53.352;-6.356;2023-02-24T08:06:25;15.48;;;3.70;;
35530;SDS011;21637;53.352;-6.356;2023-02-24T08:11:45;11.80;;;3.45;;
35530;SDS011;21637;53.352;-6.356;2023-02-24T08:14:16;17.40;;;4.43;;
35530;SDS011;21637;53.352;-6.356;2023-02-24T08:16:48;13.40;;;3.88;;
35530;SDS011;21637;53.352;-6.356;2023-02-24T08:19:16;20.15;;;3.72;;
35530;SDS011;21637;53.352;-6.356;2023-02-24T08:21:50;17.80;;;4.32;;
35530;SDS011;21637;53.352;-6.356;2023-02-24T08:26:51;20.25;;;4.95;;
35530;SDS011;21637;53.352;-6.356;2023-02-24T08:29:30;23.52;;;5.00;;
35530;SDS011;21637;53.352;-6.356;2023-02-24T08:32:19;15.63;;;3.58;;
35530;SDS011;21637;53.352;-6.356;2023-02-24T08:34:48;16.73;;;4.88;;
35530;SDS011;21637;53.352;-6.356;2023-02-24T08:37:14;17.77;;;3.80;;
35530;SDS011;21637;53.352;-6.356;2023-02-24T08:39:40;18.60;;;4.03;;
35530;SDS011;21637;53.352;-6.356;2023-02-24T08:42:08;18.20;;;3.28;;
35530;SDS011;21637;53.352;-6.356;2023-02-24T08:44:33;22.80;;;4.05;;
35530;SDS011;21637;53.352;-6.356;2023-02-24T08:47:01;21.38;;;4.68;;
35530;SDS011;21637;53.352;-6.356;2023-02-24T08:49:29;19.75;;;4.05;;
35530;SDS011;21637;53.352;-6.356;2023-02-24T08:51:57;15.23;;;3.35;;
35530;SDS011;21637;53.352;-6.356;2023-02-24T08:54:26;26.40;;;4.03;;
35530;SDS011;21637;53.352;-6.356;2023-02-24T08:56:56;15.93;;;3.85;;
35530;SDS011;21637;53.352;-6.356;2023-02-24T08:59:32;21.35;;;4.00;;
35530;SDS011;21637;53.352;-6.356;2023-02-24T09:02:10;17.35;;;3.40;;
35530;SDS011;21637;53.352;-6.356;2023-02-24T09:04:59;15.38;;;3.13;;
35530;SDS011;21637;53.352;-6.356;2023-02-24T09:07:28;21.48;;;4.20;;
35530;SDS011;21637;53.352;-6.356;2023-02-24T09:09:59;17.65;;;4.07;;
35530;SDS011;21637;53.352;-6.356;2023-02-24T09:12:27;20.25;;;3.63;;
35530;SDS011;21637;53.352;-6.356;2023-02-24T09:14:54;18.27;;;3.78;;
35530;SDS011;21637;53.352;-6.356;2023-02-24T09:17:28;18.27;;;3.90;;
35530;SDS011;21637;53.352;-6.356;2023-02-24T09:20:11;23.25;;;4.05;;
35530;SDS011;21637;53.352;-6.356;2023-02-24T09:22:57;16.15;;;3.47;;
35530;SDS011;21637;53.352;-6.356;2023-02-24T09:25:36;17.00;;;3.58;;
35530;SDS011;21637;53.352;-6.356;2023-02-24T09:30:42;22.77;;;4.22;;
35530;SDS011;21637;53.352;-6.356;2023-02-24T09:33:24;13.90;;;2.95;;
35530;SDS011;21637;53.352;-6.356;2023-02-24T09:36:12;15.68;;;3.00;;
35530;SDS011;21637;53.352;-6.356;2023-02-24T09:38:58;17.17;;;3.63;;
35530;SDS011;21637;53.352;-6.356;2023-02-24T09:46:54;12.30;;;3.10;;
35530;SDS011;21637;53.352;-6.356;2023-02-24T09:49:32;17.73;;;3.88;;
35530;SDS011;21637;53.352;-6.356;2023-02-24T09:52:15;19.70;;;3.75;;
35530;SDS011;21637;53.352;-6.356;2023-02-24T09:54:45;23.63;;;3.40;;
35530;SDS011;21637;53.352;-6.356;2023-02-24T09:57:46;13.07;;;3.05;;
35530;SDS011;21637;53.352;-6.356;2023-02-24T10:00:35;13.98;;;2.88;;
35530;SDS011;21637;53.352;-6.356;2023-02-24T10:03:17;9.93;;;2.70;;
35530;SDS011;21637;53.352;-6.356;2023-02-24T10:06:11;16.15;;;3.08;;
35530;SDS011;21637;53.352;-6.356;2023-02-24T10:08:49;14.20;;;3.25;;
35530;SDS011;21637;53.352;-6.356;2023-02-24T10:11:36;13.25;;;2.75;;
35530;SDS011;21637;53.352;-6.356;2023-02-24T10:14:17;16.93;;;3.80;;
35530;SDS011;21637;53.352;-6.356;2023-02-24T10:16:47;13.50;;;2.92;;
35530;SDS011;21637;53.352;-6.356;2023-02-24T10:19:35;16.70;;;2.75;;
35530;SDS011;21637;53.352;-6.356;2023-02-24T10:22:24;7.65;;;2.30;;
35530;SDS011;21637;53.352;-6.356;2023-02-24T10:25:02;13.43;;;2.10;;
35530;SDS011;21637;53.352;-6.356;2023-02-24T10:30:33;15.65;;;3.08;;
35530;SDS011;21637;53.352;-6.356;2023-02-24T10:33:20;17.25;;;2.40;;
35530;SDS011;21637;53.352;-6.356;2023-02-24T10:36:02;13.35;;;2.70;;
35530;SDS011;21637;53.352;-6.356;2023-02-24T10:38:36;11.93;;;2.47;;
35530;SDS011;21637;53.352;-6.356;2023-02-24T10:41:07;11.98;;;2.47;;
35530;SDS011;21637;53.352;-6.356;2023-02-24T10:43:34;14.32;;;1.92;;
35530;SDS011;21637;53.352;-6.356;2023-02-24T10:46:18;13.95;;;2.72;;
35530;SDS011;21637;53.352;-6.356;2023-02-24T10:48:55;8.25;;;1.77;;
35530;SDS011;21637;53.352;-6.356;2023-02-24T10:51:27;12.43;;;2.55;;
35530;SDS011;21637;53.352;-6.356;2023-02-24T10:56:58;13.55;;;2.90;;
35530;SDS011;21637;53.352;-6.356;2023-02-24T10:59:57;5.95;;;1.83;;
35530;SDS011;21637;53.352;-6.356;2023-02-24T11:02:45;10.05;;;2.80;;
35530;SDS011;21637;53.352;-6.356;2023-02-24T11:05:39;14.15;;;2.28;;
35530;SDS011;21637;53.352;-6.356;2023-02-24T11:08:25;9.35;;;1.92;;
35530;SDS011;21637;53.352;-6.356;2023-02-24T11:11:09;7.60;;;1.70;;
35530;SDS011;21637;53.352;-6.356;2023-02-24T11:13:58;8.65;;;1.88;;
35530;SDS011;21637;53.352;-6.356;2023-02-24T11:16:53;4.30;;;1.63;;
35530;SDS011;21637;53.352;-6.356;2023-02-24T11:19:42;8.88;;;2.28;;
35530;SDS011;21637;53.352;-6.356;2023-02-24T11:22:32;7.25;;;1.80;;
35530;SDS011;21637;53.352;-6.356;2023-02-24T11:25:04;7.35;;;2.20;;
35530;SDS011;21637;53.352;-6.356;2023-02-24T11:27:39;9.10;;;2.20;;
35530;SDS011;21637;53.352;-6.356;2023-02-24T11:33:14;7.82;;;1.90;;
35530;SDS011;21637;53.352;-6.356;2023-02-24T11:38:38;12.85;;;2.67;;
35530;SDS011;21637;53.352;-6.356;2023-02-24T11:41:21;10.20;;;1.90;;
35530;SDS011;21637;53.352;-6.356;2023-02-24T11:43:55;9.45;;;2.22;;
35530;SDS011;21637;53.352;-6.356;2023-02-24T11:46:48;9.38;;;2.13;;
35530;SDS011;21637;53.352;-6.356;2023-02-24T11:52:10;6.85;;;1.70;;
35530;SDS011;21637;53.352;-6.356;2023-02-24T11:54:46;7.97;;;2.00;;
35530;SDS011;21637;53.352;-6.356;2023-02-24T11:57:22;5.38;;;1.77;;
35530;SDS011;21637;53.352;-6.356;2023-02-24T12:00:22;5.28;;;2.00;;
35530;SDS011;21637;53.352;-6.356;2023-02-24T12:05:24;4.55;;;1.75;;
35530;SDS011;21637;53.352;-6.356;2023-02-24T12:10:26;8.13;;;2.67;;
35530;SDS011;21637;53.352;-6.356;2023-02-24T12:16:22;6.65;;;2.38;;
35530;SDS011;21637;53.352;-6.356;2023-02-24T12:18:41;7.65;;;2.70;;
35530;SDS011;21637;53.352;-6.356;2023-02-24T12:21:17;11.30;;;2.00;;
35530;SDS011;21637;53.352;-6.356;2023-02-24T12:23:44;9.18;;;1.70;;
35530;SDS011;21637;53.352;-6.356;2023-02-24T12:26:26;6.80;;;1.90;;
35530;SDS011;21637;53.352;-6.356;2023-02-24T12:32:00;13.20;;;2.35;;
35530;SDS011;21637;53.352;-6.356;2023-02-24T12:34:55;10.02;;;2.10;;
35530;SDS011;21637;53.352;-6.356;2023-02-24T12:37:40;10.40;;;2.30;;
35530;SDS011;21637;53.352;-6.356;2023-02-24T12:53:43;8.70;;;1.50;;
35530;SDS011;21637;53.352;-6.356;2023-02-24T12:56:24;9.35;;;2.13;;
35530;SDS011;21637;53.352;-6.356;2023-02-24T12:58:58;10.98;;;2.03;;
35530;SDS011;21637;53.352;-6.356;2023-02-24T13:15:25;10.30;;;2.10;;
35530;SDS011;21637;53.352;-6.356;2023-02-24T13:17:55;7.28;;;1.88;;
35530;SDS011;21637;53.352;-6.356;2023-02-24T13:20:28;7.75;;;2.35;;
35530;SDS011;21637;53.352;-6.356;2023-02-24T13:22:59;6.65;;;2.38;;
35530;SDS011;21637;53.352;-6.356;2023-02-24T13:25:32;9.35;;;2.05;;
35530;SDS011;21637;53.352;-6.356;2023-02-24T13:28:05;6.55;;;1.85;;
35530;SDS011;21637;53.352;-6.356;2023-02-24T13:31:06;5.28;;;2.25;;
35530;SDS011;21637;53.352;-6.356;2023-02-24T13:33:40;6.20;;;1.67;;
35530;SDS011;21637;53.352;-6.356;2023-02-24T13:38:46;5.13;;;1.70;;
35530;SDS011;21637;53.352;-6.356;2023-02-24T13:43:59;5.20;;;1.85;;
35530;SDS011;21637;53.352;-6.356;2023-02-24T14:00:07;6.60;;;1.85;;
35530;SDS011;21637;53.352;-6.356;2023-02-24T14:02:36;9.43;;;2.20;;
35530;SDS011;21637;53.352;-6.356;2023-02-24T14:05:18;9.43;;;2.25;;
35530;SDS011;21637;53.352;-6.356;2023-02-24T14:07:48;7.45;;;2.25;;
35530;SDS011;21637;53.352;-6.356;2023-02-24T14:10:27;8.45;;;2.20;;
35530;SDS011;21637;53.352;-6.356;2023-02-24T14:13:01;11.88;;;2.45;;
35530;SDS011;21637;53.352;-6.356;2023-02-24T14:15:30;13.90;;;3.00;;
35530;SDS011;21637;53.352;-6.356;2023-02-24T14:18:02;8.98;;;2.72;;
35530;SDS011;21637;53.352;-6.356;2023-02-24T14:20:32;10.43;;;3.28;;
35530;SDS011;21637;53.352;-6.356;2023-02-24T14:23:01;10.30;;;3.65;;
35530;SDS011;21637;53.352;-6.356;2023-02-24T14:25:45;12.23;;;3.63;;
35530;SDS011;21637;53.352;-6.356;2023-02-24T14:28:18;12.82;;;4.80;;
35530;SDS011;21637;53.352;-6.356;2023-02-24T14:30:54;12.27;;;4.55;;
35530;SDS011;21637;53.352;-6.356;2023-02-24T14:33:32;12.60;;;4.28;;
35530;SDS011;21637;53.352;-6.356;2023-02-24T14:36:00;11.00;;;4.47;;
35530;SDS011;21637;53.352;-6.356;2023-02-24T14:41:01;10.63;;;3.15;;
35530;SDS011;21637;53.352;-6.356;2023-02-24T14:43:29;9.40;;;2.65;;
35530;SDS011;21637;53.352;-6.356;2023-02-24T14:45:55;11.82;;;2.90;;
35530;SDS011;21637;53.352;-6.356;2023-02-24T14:48:29;10.13;;;2.72;;
35530;SDS011;21637;53.352;-6.356;2023-02-24T14:50:59;8.55;;;2.10;;
35530;SDS011;21637;53.352;-6.356;2023-02-24T14:53:33;9.30;;;2.60;;
35530;SDS011;21637;53.352;-6.356;2023-02-24T14:56:02;7.00;;;2.13;;
35530;SDS011;21637;53.352;-6.356;2023-02-24T14:58:39;9.77;;;2.08;;
35530;SDS011;21637;53.352;-6.356;2023-02-24T15:01:14;5.30;;;1.77;;
35530;SDS011;21637;53.352;-6.356;2023-02-24T15:03:50;6.15;;;1.80;;
35530;SDS011;21637;53.352;-6.356;2023-02-24T15:06:23;10.32;;;1.85;;
35530;SDS011;21637;53.352;-6.356;2023-02-24T15:08:56;7.65;;;1.80;;
35530;SDS011;21637;53.352;-6.356;2023-02-24T15:11:27;7.75;;;2.22;;
35530;SDS011;21637;53.352;-6.356;2023-02-24T15:18:55;9.95;;;2.00;;
35530;SDS011;21637;53.352;-6.356;2023-02-24T15:21:39;10.68;;;2.10;;
35530;SDS011;21637;53.352;-6.356;2023-02-24T15:26:41;6.35;;;2.20;;
35530;SDS011;21637;53.352;-6.356;2023-02-24T15:29:20;7.45;;;2.17;;
35530;SDS011;21637;53.352;-6.356;2023-02-24T15:31:49;6.15;;;1.80;;
35530;SDS011;21637;53.352;-6.356;2023-02-24T15:34:17;9.02;;;2.00;;
35530;SDS011;21637;53.352;-6.356;2023-02-24T15:36:44;8.93;;;2.00;;
35530;SDS011;21637;53.352;-6.356;2023-02-24T15:39:16;6.28;;;2.05;;
35530;SDS011;21637;53.352;-6.356;2023-02-24T15:41:47;6.55;;;1.98;;
35530;SDS011;21637;53.352;-6.356;2023-02-24T15:46:55;6.35;;;1.42;;
35530;SDS011;21637;53.352;-6.356;2023-02-24T15:49:22;9.20;;;1.75;;
35530;SDS011;21637;53.352;-6.356;2023-02-24T15:51:49;6.88;;;1.60;;
35530;SDS011;21637;53.352;-6.356;2023-02-24T15:54:29;9.23;;;1.98;;
35530;SDS011;21637;53.352;-6.356;2023-02-24T15:56:58;5.70;;;2.00;;
35530;SDS011;21637;53.352;-6.356;2023-02-24T15:59:26;7.00;;;1.42;;
35530;SDS011;21637;53.352;-6.356;2023-02-24T16:01:52;7.15;;;1.90;;
35530;SDS011;21637;53.352;-6.356;2023-02-24T16:04:19;7.07;;;1.48;;
35530;SDS011;21637;53.352;-6.356;2023-02-24T16:06:46;6.45;;;1.80;;
35530;SDS011;21637;53.352;-6.356;2023-02-24T16:09:38;7.55;;;1.60;;
35530;SDS011;21637;53.352;-6.356;2023-02-24T16:12:15;9.63;;;1.90;;
35530;SDS011;21637;53.352;-6.356;2023-02-24T16:14:44;7.05;;;1.55;;
35530;SDS011;21637;53.352;-6.356;2023-02-24T16:17:20;6.05;;;2.05;;
35530;SDS011;21637;53.352;-6.356;2023-02-24T16:19:57;9.43;;;2.22;;
35530;SDS011;21637;53.352;-6.356;2023-02-24T16:22:23;9.88;;;2.17;;
35530;SDS011;21637;53.352;-6.356;2023-02-24T16:24:49;5.72;;;2.08;;
35530;SDS011;21637;53.352;-6.356;2023-02-24T16:27:16;8.15;;;2.35;;
35530;SDS011;21637;53.352;-6.356;2023-02-24T16:29:43;10.38;;;2.22;;
35530;SDS011;21637;53.352;-6.356;2023-02-24T16:32:10;7.43;;;1.77;;
35530;SDS011;21637;53.352;-6.356;2023-02-24T16:34:37;11.43;;;2.05;;
35530;SDS011;21637;53.352;-6.356;2023-02-24T16:37:03;7.15;;;2.10;;
35530;SDS011;21637;53.352;-6.356;2023-02-24T16:42:01;7.70;;;2.38;;
35530;SDS011;21637;53.352;-6.356;2023-02-24T16:44:31;11.10;;;3.90;;
35530;SDS011;21637;53.352;-6.356;2023-02-24T16:46:56;8.98;;;3.70;;
35530;SDS011;21637;53.352;-6.356;2023-02-24T16:49:22;10.25;;;2.55;;
35530;SDS011;21637;53.352;-6.356;2023-02-24T16:51:48;8.43;;;2.67;;
35530;SDS011;21637;53.352;-6.356;2023-02-24T16:54:14;8.63;;;2.30;;
35530;SDS011;21637;53.352;-6.356;2023-02-24T16:56:39;8.38;;;3.13;;
35530;SDS011;21637;53.352;-6.356;2023-02-24T16:59:05;8.35;;;1.95;;
35530;SDS011;21637;53.352;-6.356;2023-02-24T17:01:31;11.38;;;3.00;;
35530;SDS011;21637;53.352;-6.356;2023-02-24T17:03:56;10.45;;;2.25;;
35530;SDS011;21637;53.352;-6.356;2023-02-24T17:06:22;13.98;;;2.92;;
35530;SDS011;21637;53.352;-6.356;2023-02-24T17:08:49;10.77;;;2.38;;
35530;SDS011;21637;53.352;-6.356;2023-02-24T17:11:18;11.88;;;2.25;;
35530;SDS011;21637;53.352;-6.356;2023-02-24T17:13:45;11.10;;;2.45;;
35530;SDS011;21637;53.352;-6.356;2023-02-24T17:16:10;9.70;;;3.20;;
35530;SDS011;21637;53.352;-6.356;2023-02-24T17:18:36;11.90;;;2.92;;
35530;SDS011;21637;53.352;-6.356;2023-02-24T17:21:02;9.10;;;2.15;;
35530;SDS011;21637;53.352;-6.356;2023-02-24T17:23:29;10.77;;;2.80;;